Time;durP1;ratioP1;P1;durP2;ratioP2;P2;SDS_P1;SDS_P2;PMS_P1;PMS_P2;Temp;Humidity;BMP_temperature;BMP_pressure;BME280_temperature;BME280_humidity;BME280_pressure;Samples;Min_cycle;Max_cycle;Signal;HPM_P1;HPM_P2
2023/05/07 00:01:36;;;;;;;9.75;6.90;;;8.60;99.90;;;;;;5049160;28;20064;-50
2023/05/07 00:04:03;;;;;;;9.93;8.48;;;8.60;99.90;;;;;;5049680;28;20021;-51
2023/05/07 00:06:29;;;;;;;9.93;7.63;;;8.60;99.90;;;;;;5049854;28;20033;-50
2023/05/07 00:08:55;;;;;;;9.00;7.50;;;8.50;99.90;;;;;;5047878;28;20384;-51
2023/05/07 00:11:21;;;;;;;9.40;8.05;;;8.50;99.90;;;;;;5048662;28;20040;-51
2023/05/07 00:13:48;;;;;;;8.60;7.65;;;8.50;99.90;;;;;;5050182;28;20033;-51
2023/05/07 00:16:13;;;;;;;9.93;7.32;;;8.50;99.90;;;;;;5049945;28;20035;-51
2023/05/07 00:18:39;;;;;;;10.00;8.52;;;8.50;99.90;;;;;;5046696;28;20127;-53
2023/05/07 00:21:04;;;;;;;11.55;9.07;;;8.50;99.90;;;;;;5049502;28;20064;-50
2023/05/07 00:23:30;;;;;;;8.85;7.93;;;8.50;99.90;;;;;;5049883;28;20021;-50
2023/05/07 00:25:56;;;;;;;9.95;7.68;;;8.50;99.90;;;;;;5050155;28;20055;-50
2023/05/07 00:28:21;;;;;;;10.30;8.25;;;8.50;99.90;;;;;;5048293;28;20669;-51
2023/05/07 00:30:47;;;;;;;10.68;8.27;;;8.50;99.90;;;;;;5047909;28;20040;-50
2023/05/07 00:33:13;;;;;;;9.80;8.13;;;8.50;99.90;;;;;;5049004;28;20041;-51
2023/05/07 00:35:38;;;;;;;9.18;8.27;;;8.50;99.90;;;;;;5049158;28;20082;-50
2023/05/07 00:38:04;;;;;;;10.25;8.43;;;8.50;99.90;;;;;;5046774;28;20055;-50
2023/05/07 00:40:30;;;;;;;10.00;8.70;;;8.50;99.90;;;;;;5049186;28;20025;-49
2023/05/07 00:42:57;;;;;;;8.80;7.85;;;8.60;99.90;;;;;;5048065;28;20029;-50
2023/05/07 00:45:26;;;;;;;9.02;7.88;;;8.50;99.90;;;;;;5049045;28;20021;-51
2023/05/07 00:47:55;;;;;;;12.55;9.02;;;8.50;99.90;;;;;;5049159;28;20051;-53
2023/05/07 00:50:21;;;;;;;10.00;8.48;;;8.50;99.90;;;;;;5047567;28;20052;-52
2023/05/07 00:52:46;;;;;;;9.80;8.80;;;8.50;99.90;;;;;;5047416;28;20056;-52
2023/05/07 00:55:14;;;;;;;9.88;8.32;;;8.50;99.90;;;;;;5045794;28;20036;-50
2023/05/07 00:57:42;;;;;;;10.95;8.55;;;8.50;99.90;;;;;;5047783;28;20033;-50
2023/05/07 01:00:09;;;;;;;8.60;6.88;;;8.60;99.90;;;;;;5046003;28;20388;-51
2023/05/07 01:02:35;;;;;;;9.88;8.18;;;8.60;99.90;;;;;;5047076;28;20025;-51
2023/05/07 01:05:03;;;;;;;9.77;8.40;;;8.50;99.90;;;;;;5048406;28;20036;-50
2023/05/07 01:07:30;;;;;;;10.10;8.63;;;8.50;99.90;;;;;;5047905;28;20045;-52
2023/05/07 01:09:57;;;;;;;9.95;8.30;;;8.50;99.90;;;;;;5048712;28;20029;-52
2023/05/07 01:12:24;;;;;;;8.60;7.50;;;8.60;99.90;;;;;;5048127;28;20428;-50
2023/05/07 01:14:50;;;;;;;9.52;8.25;;;8.60;99.90;;;;;;5049206;28;20045;-50
2023/05/07 01:17:16;;;;;;;8.90;7.68;;;8.50;99.90;;;;;;5046860;28;20035;-51
2023/05/07 01:19:42;;;;;;;9.27;8.00;;;8.50;99.90;;;;;;5061690;22;20539;-53
2023/05/07 01:22:11;;;;;;;10.00;8.30;;;8.50;99.90;;;;;;5048152;28;20262;-53
2023/05/07 01:24:37;;;;;;;9.88;8.05;;;8.50;99.90;;;;;;5048003;28;20487;-51
2023/05/07 01:27:03;;;;;;;10.48;8.00;;;8.40;99.90;;;;;;5048132;28;20108;-52
2023/05/07 01:29:29;;;;;;;10.55;7.80;;;8.50;99.90;;;;;;5038880;28;20511;-48
2023/05/07 01:31:59;;;;;;;9.85;8.38;;;8.40;99.90;;;;;;5028884;28;20037;-50
2023/05/07 01:34:26;;;;;;;10.18;7.85;;;8.50;99.90;;;;;;5030823;28;20028;-51
2023/05/07 01:36:55;;;;;;;9.50;8.10;;;8.50;99.90;;;;;;5029394;28;20267;-53
2023/05/07 01:39:24;;;;;;;9.98;8.45;;;8.50;99.90;;;;;;5031337;28;20056;-50
2023/05/07 01:41:50;;;;;;;11.10;8.63;;;8.40;99.90;;;;;;5029785;28;20037;-49
2023/05/07 01:44:18;;;;;;;11.32;8.18;;;8.50;99.90;;;;;;5028975;28;20497;-50
2023/05/07 01:46:43;;;;;;;13.55;8.35;;;8.50;99.90;;;;;;5029280;28;20032;-49
2023/05/07 01:49:09;;;;;;;11.23;8.35;;;8.40;99.90;;;;;;5029651;28;20044;-50
2023/05/07 01:51:36;;;;;;;11.40;8.02;;;8.50;99.90;;;;;;5030255;28;20726;-49
2023/05/07 01:54:01;;;;;;;11.38;8.05;;;8.40;99.90;;;;;;5029995;28;20025;-48
2023/05/07 01:56:27;;;;;;;8.85;7.32;;;8.40;99.90;;;;;;5029385;28;20527;-52
2023/05/07 01:58:52;;;;;;;8.70;6.72;;;8.40;99.90;;;;;;5029837;28;20018;-55
2023/05/07 02:01:18;;;;;;;10.32;7.10;;;8.40;99.90;;;;;;5029380;28;20044;-49
2023/05/07 02:03:44;;;;;;;9.25;6.95;;;8.40;99.90;;;;;;5029910;28;20028;-51
2023/05/07 02:06:10;;;;;;;11.27;7.13;;;8.40;99.90;;;;;;5012659;28;20037;-49
2023/05/07 02:08:36;;;;;;;9.02;6.43;;;8.40;99.90;;;;;;5030130;28;20279;-48
2023/05/07 02:11:01;;;;;;;9.35;7.03;;;8.40;99.90;;;;;;5030326;28;20392;-51
2023/05/07 02:13:30;;;;;;;8.15;7.35;;;8.40;99.90;;;;;;5029865;28;20021;-51
2023/05/07 02:15:55;;;;;;;9.07;7.45;;;8.40;99.90;;;;;;5029895;28;20123;-51
2023/05/07 02:18:22;;;;;;;9.38;7.90;;;8.40;99.90;;;;;;5030188;28;20430;-52
2023/05/07 02:20:47;;;;;;;9.95;7.72;;;8.40;99.90;;;;;;5031111;28;20104;-49
2023/05/07 02:23:13;;;;;;;10.27;7.93;;;8.40;99.90;;;;;;5029915;28;20029;-48
2023/05/07 02:25:39;;;;;;;8.85;7.30;;;8.30;99.90;;;;;;5029983;28;20068;-54
2023/05/07 02:28:04;;;;;;;10.23;8.15;;;8.40;99.90;;;;;;5029555;28;20029;-51
2023/05/07 02:30:30;;;;;;;8.35;6.95;;;8.30;99.90;;;;;;5030629;28;20034;-50
2023/05/07 02:32:55;;;;;;;10.63;7.93;;;8.40;99.90;;;;;;5030246;28;20029;-51
2023/05/07 02:35:21;;;;;;;8.20;6.88;;;8.40;99.90;;;;;;5012036;28;20079;-49
2023/05/07 02:37:46;;;;;;;8.70;7.10;;;8.30;99.90;;;;;;5029618;28;20025;-50
2023/05/07 02:40:12;;;;;;;9.77;7.85;;;8.30;99.90;;;;;;5028984;28;20411;-51
2023/05/07 02:42:38;;;;;;;8.80;7.45;;;8.30;99.90;;;;;;5029123;28;20810;-50
2023/05/07 02:45:04;;;;;;;10.38;8.70;;;8.30;99.90;;;;;;5030055;28;20123;-50
2023/05/07 02:47:29;;;;;;;9.65;7.43;;;8.30;99.90;;;;;;5027253;28;20071;-49
2023/05/07 02:49:55;;;;;;;11.23;6.88;;;8.30;99.90;;;;;;5027888;28;20041;-53
2023/05/07 02:52:21;;;;;;;8.93;7.47;;;8.30;99.90;;;;;;5027555;28;20041;-51
2023/05/07 02:54:47;;;;;;;10.55;8.25;;;8.40;99.90;;;;;;5027529;28;20021;-48
2023/05/07 02:57:12;;;;;;;10.63;7.57;;;8.40;99.90;;;;;;5010237;28;20474;-50
2023/05/07 02:59:38;;;;;;;10.18;7.82;;;8.30;99.90;;;;;;5028825;28;20025;-49
2023/05/07 03:02:04;;;;;;;10.57;7.82;;;8.30;99.90;;;;;;5027863;28;20030;-54
2023/05/07 03:04:29;;;;;;;12.25;8.15;;;8.30;99.90;;;;;;5028617;28;20034;-50
2023/05/07 03:06:55;;;;;;;11.00;8.50;;;8.30;99.90;;;;;;5027194;28;20033;-49
2023/05/07 03:09:20;;;;;;;10.35;7.97;;;8.40;99.90;;;;;;5027897;28;20087;-49
2023/05/07 03:11:46;;;;;;;8.65;7.65;;;8.30;99.90;;;;;;5028995;28;20061;-51
2023/05/07 03:14:12;;;;;;;9.60;7.53;;;8.30;99.90;;;;;;5029169;28;20446;-49
2023/05/07 03:16:38;;;;;;;10.23;7.88;;;8.30;99.90;;;;;;5032241;28;20044;-51
2023/05/07 03:19:04;;;;;;;10.95;8.10;;;8.30;99.90;;;;;;5030700;28;20407;-50
2023/05/07 03:21:30;;;;;;;11.15;7.88;;;8.40;99.90;;;;;;5032379;28;20025;-54
2023/05/07 03:23:56;;;;;;;9.95;8.35;;;8.30;99.90;;;;;;5031981;28;20032;-51
2023/05/07 03:26:21;;;;;;;10.73;8.88;;;8.30;99.90;;;;;;5031588;28;20033;-54
2023/05/07 03:28:47;;;;;;;11.07;8.32;;;8.30;99.90;;;;;;5031369;28;20042;-52
2023/05/07 03:31:13;;;;;;;8.43;7.32;;;8.40;99.90;;;;;;5032081;28;20514;-51
2023/05/07 03:33:58;;;;;;;8.80;7.72;;;8.30;99.90;;;;;;5014290;28;20033;-55
2023/05/07 03:36:26;;;;;;;10.27;8.07;;;8.30;99.90;;;;;;5031922;28;20581;-52
2023/05/07 03:38:52;;;;;;;10.05;7.00;;;8.30;99.90;;;;;;5032516;28;20024;-51
2023/05/07 03:41:18;;;;;;;9.13;7.53;;;8.30;99.90;;;;;;5032663;28;20475;-52
2023/05/07 03:43:44;;;;;;;9.88;6.97;;;8.30;99.90;;;;;;5032694;28;20083;-48
2023/05/07 03:46:09;;;;;;;9.45;7.13;;;8.30;99.90;;;;;;5031901;28;20120;-49
2023/05/07 03:48:35;;;;;;;11.07;7.80;;;8.30;99.90;;;;;;5015410;28;20099;-50
2023/05/07 03:51:00;;;;;;;8.20;7.00;;;8.30;99.90;;;;;;5032909;28;20053;-50
2023/05/07 03:53:26;;;;;;;8.55;7.43;;;8.30;99.90;;;;;;5033073;28;20503;-49
2023/05/07 03:55:51;;;;;;;8.95;7.70;;;8.30;99.90;;;;;;5032762;28;20277;-48
2023/05/07 03:58:17;;;;;;;8.95;6.43;;;8.30;99.90;;;;;;5014523;28;20105;-49
2023/05/07 04:00:42;;;;;;;7.90;6.85;;;8.30;99.90;;;;;;5033519;28;20033;-50
2023/05/07 04:03:08;;;;;;;7.70;6.82;;;8.30;99.90;;;;;;5033090;28;20431;-50
2023/05/07 04:05:34;;;;;;;9.73;7.68;;;8.40;99.90;;;;;;5033693;28;20025;-49
2023/05/07 04:08:00;;;;;;;10.10;7.80;;;8.40;99.90;;;;;;5032618;28;20025;-49
2023/05/07 04:10:25;;;;;;;8.55;7.57;;;8.40;99.90;;;;;;5032213;28;20057;-52
2023/05/07 04:12:51;;;;;;;8.20;7.10;;;8.40;99.90;;;;;;5014200;28;20648;-52
2023/05/07 04:15:17;;;;;;;8.38;7.18;;;8.40;99.90;;;;;;5031776;28;20026;-51
2023/05/07 04:17:43;;;;;;;8.77;7.15;;;8.40;99.90;;;;;;5031842;28;20181;-50
2023/05/07 04:20:16;;;;;;;8.15;7.00;;;8.40;99.90;;;;;;5032711;28;20057;-50
2023/05/07 04:22:42;;;;;;;10.35;7.43;;;8.40;99.90;;;;;;5014597;28;20032;-49
2023/05/07 04:25:11;;;;;;;10.13;6.85;;;8.40;99.90;;;;;;5030622;28;20037;-50
2023/05/07 04:27:37;;;;;;;7.85;7.05;;;8.40;99.90;;;;;;5031694;28;20436;-54
2023/05/07 04:30:03;;;;;;;8.15;7.13;;;8.40;99.90;;;;;;5030031;28;20029;-50
2023/05/07 04:32:29;;;;;;;7.30;6.47;;;8.40;99.90;;;;;;5012006;28;20055;-51
2023/05/07 04:34:56;;;;;;;7.70;6.63;;;8.40;99.90;;;;;;5029804;28;20087;-53
2023/05/07 04:37:22;;;;;;;9.90;6.82;;;8.40;99.90;;;;;;5029204;28;20083;-52
2023/05/07 04:39:48;;;;;;;9.13;7.10;;;8.40;99.90;;;;;;5028255;28;20471;-50
2023/05/07 04:42:18;;;;;;;9.38;6.60;;;8.40;99.90;;;;;;5028551;28;20123;-51
2023/05/07 04:44:44;;;;;;;7.32;6.25;;;8.40;99.90;;;;;;5030004;28;20029;-49
2023/05/07 04:47:10;;;;;;;7.95;6.93;;;8.40;99.90;;;;;;5028326;28;20090;-51
2023/05/07 04:49:37;;;;;;;7.43;6.50;;;8.40;99.90;;;;;;5030006;28;20041;-51
2023/05/07 04:52:03;;;;;;;9.98;6.78;;;8.40;99.90;;;;;;5029650;28;20338;-52
2023/05/07 04:54:29;;;;;;;9.45;6.90;;;8.40;99.90;;;;;;5029901;28;20135;-51
2023/05/07 04:56:55;;;;;;;7.03;6.32;;;8.40;99.90;;;;;;5029589;28;20056;-53
2023/05/07 04:59:20;;;;;;;7.80;6.72;;;8.40;99.90;;;;;;5029769;28;20057;-48
2023/05/07 05:01:46;;;;;;;9.60;7.38;;;8.40;99.90;;;;;;5029967;28;20053;-49
2023/05/07 05:04:11;;;;;;;9.55;7.75;;;8.40;99.90;;;;;;5030014;28;20453;-50
2023/05/07 05:06:37;;;;;;;7.55;6.68;;;8.50;99.90;;;;;;5029951;28;20617;-50
2023/05/07 05:09:04;;;;;;;7.97;6.57;;;8.50;99.90;;;;;;5030156;28;20045;-50
2023/05/07 05:11:30;;;;;;;8.38;6.45;;;8.50;99.90;;;;;;5027690;28;20435;-49
2023/05/07 05:13:56;;;;;;;7.20;6.47;;;8.50;99.90;;;;;;5030762;28;20036;-49
2023/05/07 05:16:22;;;;;;;8.38;6.30;;;8.40;99.90;;;;;;5029845;28;20404;-52
2023/05/07 05:18:48;;;;;;;8.50;6.65;;;8.40;99.90;;;;;;5028346;28;20530;-51
2023/05/07 05:21:13;;;;;;;9.57;6.32;;;8.50;99.90;;;;;;5028887;28;20278;-49
2023/05/07 05:23:39;;;;;;;9.48;6.13;;;8.50;99.90;;;;;;5029104;28;20029;-52
2023/05/07 05:26:04;;;;;;;8.88;6.07;;;8.50;99.90;;;;;;5028062;28;20034;-50
2023/05/07 05:28:30;;;;;;;7.10;5.90;;;8.60;99.90;;;;;;5029208;28;20025;-51
2023/05/07 05:30:55;;;;;;;6.80;5.43;;;8.60;99.90;;;;;;5027888;28;20044;-53
2023/05/07 05:33:21;;;;;;;6.10;5.50;;;8.60;99.90;;;;;;5028809;28;20033;-52
2023/05/07 05:35:47;;;;;;;6.88;5.50;;;8.60;99.90;;;;;;5030018;28;20033;-50
2023/05/07 05:38:12;;;;;;;5.82;5.00;;;8.70;99.90;;;;;;5028478;28;20483;-51
2023/05/07 05:40:38;;;;;;;7.53;5.80;;;8.70;99.90;;;;;;5028498;28;20408;-48
2023/05/07 05:43:04;;;;;;;6.90;4.90;;;8.70;99.90;;;;;;5030524;28;20017;-49
2023/05/07 05:45:29;;;;;;;7.20;5.70;;;8.70;99.90;;;;;;5029528;28;20659;-53
2023/05/07 05:47:56;;;;;;;5.72;5.03;;;8.70;99.90;;;;;;5029760;28;20075;-48
2023/05/07 05:50:22;;;;;;;7.88;5.75;;;8.80;99.90;;;;;;5028551;28;20041;-50
2023/05/07 05:52:47;;;;;;;8.63;6.20;;;8.80;99.90;;;;;;5029274;28;20025;-49
2023/05/07 05:55:13;;;;;;;7.13;6.00;;;8.80;99.90;;;;;;5030235;28;20037;-48
2023/05/07 05:57:40;;;;;;;9.10;6.32;;;8.90;99.90;;;;;;5029462;28;20052;-50
2023/05/07 06:00:06;;;;;;;8.07;6.85;;;8.90;99.90;;;;;;5028387;28;20027;-52
2023/05/07 06:02:32;;;;;;;6.65;5.97;;;8.90;99.90;;;;;;5029946;28;20103;-51
2023/05/07 06:04:57;;;;;;;8.35;5.47;;;9.00;99.90;;;;;;5029640;28;20109;-49
2023/05/07 06:07:23;;;;;;;7.13;5.80;;;9.00;99.90;;;;;;5028441;28;20380;-50
2023/05/07 06:09:49;;;;;;;7.10;5.68;;;9.00;99.90;;;;;;5029266;28;20034;-50
2023/05/07 06:12:14;;;;;;;6.40;5.72;;;9.00;99.90;;;;;;5028541;28;20033;-50
2023/05/07 06:14:42;;;;;;;6.70;5.45;;;9.10;99.90;;;;;;5028111;28;20056;-50
2023/05/07 06:17:07;;;;;;;7.68;6.10;;;9.10;99.90;;;;;;5029015;28;20045;-48
2023/05/07 06:19:33;;;;;;;6.97;5.90;;;9.10;99.90;;;;;;5029322;28;20483;-49
2023/05/07 06:22:01;;;;;;;7.10;6.40;;;9.10;99.90;;;;;;5028970;28;20252;-50
2023/05/07 06:24:26;;;;;;;5.97;5.38;;;9.20;99.90;;;;;;5028616;28;20032;-49
2023/05/07 06:26:52;;;;;;;6.50;5.30;;;9.20;99.90;;;;;;5029021;28;20050;-51
2023/05/07 06:29:17;;;;;;;7.00;5.20;;;9.20;99.90;;;;;;5029798;28;20067;-51
2023/05/07 06:31:43;;;;;;;6.72;5.47;;;9.20;99.90;;;;;;5028849;28;20044;-52
2023/05/07 06:34:08;;;;;;;7.20;5.22;;;9.30;99.90;;;;;;5011334;28;20052;-52
2023/05/07 06:36:35;;;;;;;5.82;5.20;;;9.30;99.90;;;;;;5029848;28;20022;-51
2023/05/07 06:39:01;;;;;;;7.82;5.57;;;9.30;99.90;;;;;;5030012;28;20041;-49
2023/05/07 06:41:26;;;;;;;6.32;5.65;;;9.30;99.90;;;;;;5030393;28;20286;-50
2023/05/07 06:43:52;;;;;;;6.47;5.47;;;9.40;99.90;;;;;;5029392;28;20277;-52
2023/05/07 06:46:17;;;;;;;5.88;5.28;;;9.40;99.90;;;;;;5029206;28;20104;-52
2023/05/07 06:48:43;;;;;;;5.40;4.85;;;9.40;99.90;;;;;;5029480;28;20480;-52
2023/05/07 06:51:08;;;;;;;7.63;4.63;;;9.40;99.90;;;;;;5029822;28;20033;-51
2023/05/07 06:53:35;;;;;;;6.40;5.00;;;9.50;99.90;;;;;;5028890;28;20022;-48
2023/05/07 06:56:01;;;;;;;6.28;5.25;;;9.50;99.90;;;;;;5027948;28;20096;-51
2023/05/07 06:58:26;;;;;;;5.45;4.63;;;9.50;99.90;;;;;;5028629;28;20512;-52
2023/05/07 07:00:54;;;;;;;6.55;5.93;;;9.50;99.90;;;;;;5027550;28;20081;-50
2023/05/07 07:03:20;;;;;;;5.97;5.07;;;9.50;99.90;;;;;;5027928;28;20028;-48
2023/05/07 07:05:46;;;;;;;6.20;5.47;;;9.60;99.90;;;;;;5028913;28;20032;-47
2023/05/07 07:08:11;;;;;;;5.65;5.00;;;9.60;99.90;;;;;;5027432;28;20025;-48
2023/05/07 07:10:37;;;;;;;6.63;5.15;;;9.60;99.90;;;;;;5028056;28;20032;-49
2023/05/07 07:13:02;;;;;;;5.68;4.53;;;9.70;99.90;;;;;;5027463;28;20399;-50
2023/05/07 07:15:28;;;;;;;5.38;4.70;;;9.70;99.90;;;;;;5027614;28;20026;-49
2023/05/07 07:17:53;;;;;;;6.03;4.72;;;9.80;99.90;;;;;;5027177;28;20025;-49
2023/05/07 07:20:19;;;;;;;4.88;4.28;;;9.90;99.90;;;;;;5194571;22;20377;-49
2023/05/07 07:22:45;;;;;;;4.80;3.97;;;9.90;99.90;;;;;;5045815;28;20017;-52
2023/05/07 07:25:11;;;;;;;5.40;4.72;;;10.00;99.90;;;;;;5045953;28;20025;-49
2023/05/07 07:27:37;;;;;;;5.47;4.70;;;10.00;99.90;;;;;;5044043;28;20025;-50
2023/05/07 07:30:03;;;;;;;5.05;4.10;;;10.10;99.90;;;;;;5042125;28;20029;-49
2023/05/07 07:32:29;;;;;;;4.93;4.40;;;10.10;99.90;;;;;;5033234;28;20022;-50
2023/05/07 07:34:54;;;;;;;5.35;4.30;;;10.10;99.90;;;;;;5035507;28;20553;-54
2023/05/07 07:37:20;;;;;;;7.25;4.53;;;10.10;99.90;;;;;;5035125;28;20454;-52
2023/05/07 07:39:45;;;;;;;6.50;4.68;;;10.10;99.90;;;;;;5035817;28;20490;-52
2023/05/07 07:42:11;;;;;;;5.05;4.38;;;10.10;99.90;;;;;;5036269;28;20490;-52
2023/05/07 07:44:37;;;;;;;4.78;4.25;;;10.20;99.90;;;;;;5035582;28;20117;-49
2023/05/07 07:47:02;;;;;;;5.22;3.90;;;10.20;99.90;;;;;;5035225;28;20017;-51
2023/05/07 07:49:28;;;;;;;4.50;4.10;;;10.20;99.90;;;;;;5035135;28;20440;-53
2023/05/07 07:51:53;;;;;;;4.28;3.88;;;10.20;99.90;;;;;;5035177;28;20095;-48
2023/05/07 07:54:19;;;;;;;5.93;4.78;;;10.30;99.90;;;;;;5036056;28;20065;-49
2023/05/07 07:56:44;;;;;;;4.13;3.72;;;10.30;99.90;;;;;;5034109;28;20036;-49
2023/05/07 07:59:10;;;;;;;4.82;4.35;;;10.30;99.90;;;;;;5035685;28;20025;-51
2023/05/07 08:01:35;;;;;;;4.82;4.32;;;10.40;99.90;;;;;;5035893;28;20407;-50
2023/05/07 08:04:03;;;;;;;5.35;4.05;;;10.40;99.90;;;;;;5038244;28;20033;-50
2023/05/07 08:06:28;;;;;;;6.57;4.22;;;10.40;99.90;;;;;;5037275;28;20120;-50
2023/05/07 08:08:55;;;;;;;5.05;4.20;;;10.40;99.90;;;;;;5037706;28;20613;-49
2023/05/07 08:11:21;;;;;;;5.03;4.53;;;10.40;99.90;;;;;;5038496;28;20495;-53
2023/05/07 08:13:47;;;;;;;4.40;3.95;;;10.40;99.90;;;;;;5038050;28;20447;-49
2023/05/07 08:16:12;;;;;;;5.57;4.22;;;10.40;99.90;;;;;;5038498;28;20041;-51
2023/05/07 08:18:38;;;;;;;4.35;3.95;;;10.40;99.90;;;;;;5036555;28;20017;-49
2023/05/07 08:21:04;;;;;;;5.05;4.13;;;10.40;99.90;;;;;;5038535;28;20029;-49
2023/05/07 08:23:30;;;;;;;4.40;3.88;;;10.50;99.90;;;;;;5018594;28;20256;-52
2023/05/07 08:25:55;;;;;;;5.13;4.03;;;10.60;99.90;;;;;;5021484;28;20076;-49
2023/05/07 08:28:21;;;;;;;4.82;3.83;;;10.70;99.90;;;;;;5038175;28;20041;-50
2023/05/07 08:30:47;;;;;;;4.15;3.72;;;10.80;99.90;;;;;;5038632;28;20037;-50
2023/05/07 08:33:12;;;;;;;4.30;3.90;;;10.80;99.90;;;;;;5038888;28;20028;-49
2023/05/07 08:35:38;;;;;;;5.07;3.80;;;10.90;99.90;;;;;;5037596;28;20168;-52
2023/05/07 08:38:04;;;;;;;4.32;3.67;;;10.90;99.90;;;;;;5038087;28;20033;-53
2023/05/07 08:40:36;;;;;;;3.63;3.33;;;10.90;99.90;;;;;;5038236;28;20024;-51
2023/05/07 08:43:02;;;;;;;3.60;3.20;;;11.00;99.90;;;;;;5038417;28;20037;-53
2023/05/07 08:45:32;;;;;;;4.63;4.13;;;11.00;99.90;;;;;;5038232;28;20026;-50
2023/05/07 08:48:05;;;;;;;4.18;3.78;;;11.00;99.90;;;;;;5037847;28;20510;-52
2023/05/07 08:50:31;;;;;;;4.45;3.83;;;11.10;99.90;;;;;;5035514;28;20037;-52
2023/05/07 08:52:57;;;;;;;3.55;3.25;;;11.10;99.90;;;;;;5038831;28;20060;-51
2023/05/07 08:55:23;;;;;;;5.22;4.00;;;11.20;99.90;;;;;;5038101;28;20255;-52
2023/05/07 08:57:49;;;;;;;4.28;3.88;;;11.20;99.90;;;;;;5038955;28;20656;-49
2023/05/07 09:00:15;;;;;;;4.55;3.50;;;11.20;99.90;;;;;;5037486;28;20059;-52
2023/05/07 09:02:41;;;;;;;5.57;4.10;;;11.20;99.90;;;;;;5039118;28;20040;-49
2023/05/07 09:05:07;;;;;;;5.03;4.15;;;11.20;99.90;;;;;;5027172;28;20040;-49
2023/05/07 09:07:33;;;;;;;5.03;3.78;;;11.20;99.90;;;;;;5034488;28;20079;-50
2023/05/07 09:10:05;;;;;;;4.35;3.95;;;11.20;99.90;;;;;;5036366;28;20030;-54
2023/05/07 09:12:30;;;;;;;3.50;3.20;;;11.20;99.90;;;;;;5037285;28;20029;-52
2023/05/07 09:14:56;;;;;;;4.05;3.67;;;11.20;99.90;;;;;;5037473;28;20367;-50
2023/05/07 09:17:22;;;;;;;5.20;3.70;;;11.30;99.90;;;;;;5036882;28;20099;-51
2023/05/07 09:19:47;;;;;;;4.03;3.63;;;11.30;99.90;;;;;;5036097;28;20436;-52
2023/05/07 09:22:13;;;;;;;5.47;4.10;;;11.40;99.90;;;;;;5037478;28;20025;-52
2023/05/07 09:24:39;;;;;;;3.50;3.20;;;11.40;99.90;;;;;;5037545;28;20026;-53
2023/05/07 09:27:05;;;;;;;3.50;3.10;;;11.40;99.90;;;;;;5039354;28;20037;-54
2023/05/07 09:29:37;;;;;;;3.92;3.63;;;11.40;99.90;;;;;;5037355;28;20024;-52
2023/05/07 09:32:07;;;;;;;4.65;3.53;;;11.50;99.90;;;;;;5036520;28;20067;-50
2023/05/07 09:34:32;;;;;;;4.45;3.53;;;11.50;99.90;;;;;;5035850;28;20086;-50
2023/05/07 09:37:02;;;;;;;3.40;3.10;;;11.50;99.90;;;;;;5037594;28;20028;-50
2023/05/07 09:39:49;;;;;;;4.22;3.70;;;11.60;99.90;;;;;;5019139;28;20021;-50
2023/05/07 09:42:15;;;;;;;3.85;3.55;;;11.70;99.90;;;;;;5037340;28;20120;-50
2023/05/07 09:44:42;;;;;;;4.40;4.00;;;11.70;99.90;;;;;;5037113;28;20196;-50
2023/05/07 09:47:10;;;;;;;4.22;3.03;;;11.80;99.90;;;;;;5037145;28;20036;-49
2023/05/07 09:49:38;;;;;;;4.93;3.63;;;11.80;99.90;;;;;;5036749;28;20086;-53
2023/05/07 09:52:08;;;;;;;3.80;3.50;;;12.00;99.90;;;;;;5020050;28;20029;-51
2023/05/07 09:54:37;;;;;;;4.07;3.65;;;12.00;99.90;;;;;;5035974;28;20028;-52
2023/05/07 09:57:04;;;;;;;4.60;4.10;;;12.10;99.90;;;;;;5037515;28;20063;-51
2023/05/07 09:59:32;;;;;;;4.43;3.65;;;12.10;99.90;;;;;;5035323;28;20033;-52
2023/05/07 10:01:59;;;;;;;4.68;3.60;;;12.10;99.90;;;;;;5036549;28;20041;-52
2023/05/07 10:04:26;;;;;;;3.38;3.08;;;12.10;99.90;;;;;;5035640;28;20036;-51
2023/05/07 10:06:53;;;;;;;3.38;3.08;;;12.10;99.90;;;;;;5036847;28;20029;-50
2023/05/07 10:09:19;;;;;;;3.55;3.25;;;12.20;99.90;;;;;;5036719;28;20056;-49
2023/05/07 10:11:45;;;;;;;3.45;3.13;;;12.30;99.90;;;;;;5036372;28;20484;-51
2023/05/07 10:14:12;;;;;;;4.25;3.65;;;12.30;99.90;;;;;;5037496;28;20500;-49
2023/05/07 10:16:37;;;;;;;5.88;3.55;;;12.40;99.90;;;;;;5035153;28;20128;-50
2023/05/07 10:19:04;;;;;;;4.32;3.53;;;12.40;99.90;;;;;;5035502;28;20026;-48
2023/05/07 10:21:33;;;;;;;3.50;2.97;;;12.40;99.90;;;;;;5037225;28;20472;-52
2023/05/07 10:24:14;;;;;;;3.55;3.25;;;12.50;99.90;;;;;;5037141;28;20025;-49
2023/05/07 10:26:46;;;;;;;3.85;3.10;;;12.50;99.90;;;;;;5020446;28;20059;-51
2023/05/07 10:29:34;;;;;;;3.45;2.97;;;12.60;99.90;;;;;;5037169;28;20515;-50
2023/05/07 10:32:19;;;;;;;3.03;2.83;;;12.70;99.90;;;;;;5017574;28;20549;-50
2023/05/07 10:34:48;;;;;;;3.72;3.22;;;12.80;99.90;;;;;;5034094;28;20017;-53
2023/05/07 10:37:15;;;;;;;5.32;4.00;;;13.00;99.90;;;;;;5017968;28;20402;-54
2023/05/07 10:39:41;;;;;;;4.13;3.28;;;13.10;99.90;;;;;;5036547;28;20083;-52
2023/05/07 10:42:11;;;;;;;3.92;3.17;;;13.10;99.90;;;;;;5036639;28;20057;-50
2023/05/07 10:44:37;;;;;;;3.53;3.15;;;13.10;99.90;;;;;;5035996;28;20452;-52
2023/05/07 10:47:13;;;;;;;3.08;2.83;;;13.20;99.90;;;;;;5036097;28;20372;-50
2023/05/07 10:49:45;;;;;;;3.20;2.90;;;13.20;99.90;;;;;;5036059;28;20048;-51
2023/05/07 10:52:16;;;;;;;3.67;3.00;;;13.30;99.90;;;;;;5035723;28;20051;-49
2023/05/07 10:54:43;;;;;;;4.35;2.97;;;13.50;99.90;;;;;;5035697;28;20036;-51
2023/05/07 10:57:28;;;;;;;3.42;3.13;;;13.80;99.90;;;;;;5035497;28;20389;-50
2023/05/07 10:59:53;;;;;;;2.75;2.55;;;14.00;99.90;;;;;;5035057;28;20017;-51
2023/05/07 11:02:19;;;;;;;2.75;2.55;;;14.00;99.90;;;;;;5034987;28;20086;-51
2023/05/07 11:04:45;;;;;;;2.85;2.40;;;14.10;99.90;;;;;;5034939;28;20096;-50
2023/05/07 11:07:24;;;;;;;2.60;2.40;;;14.10;99.90;;;;;;5037729;28;20029;-49
2023/05/07 11:09:53;;;;;;;3.65;3.05;;;14.20;99.90;;;;;;5035745;28;20057;-49
2023/05/07 11:12:40;;;;;;;2.83;2.45;;;14.30;99.90;;;;;;5036093;28;20025;-49
2023/05/07 11:15:09;;;;;;;3.17;2.00;;;14.40;99.90;;;;;;5036473;28;20025;-51
2023/05/07 11:17:52;;;;;;;2.78;2.53;;;14.40;99.90;;;;;;5034355;28;20032;-50
2023/05/07 11:20:18;;;;;;;3.22;2.38;;;14.50;99.90;;;;;;5035928;28;20160;-52
2023/05/07 11:22:44;;;;;;;3.42;2.40;;;14.50;99.90;;;;;;5035225;28;20108;-54
2023/05/07 11:25:10;;;;;;;2.42;2.25;;;14.50;99.90;;;;;;5035292;28;20073;-49
2023/05/07 11:27:36;;;;;;;3.72;2.50;;;14.60;99.90;;;;;;5035444;28;20025;-50
2023/05/07 11:30:01;;;;;;;2.95;2.75;;;14.50;99.90;;;;;;5035911;28;20057;-50
2023/05/07 11:32:28;;;;;;;2.65;2.45;;;14.50;99.90;;;;;;5035529;28;20432;-51
2023/05/07 11:34:55;;;;;;;4.53;2.97;;;14.40;99.90;;;;;;5035689;28;20491;-49
2023/05/07 11:37:22;;;;;;;2.50;2.30;;;14.40;99.90;;;;;;5038280;28;20029;-49
2023/05/07 11:39:48;;;;;;;4.80;2.90;;;14.50;99.90;;;;;;5039886;28;20057;-50
2023/05/07 11:42:34;;;;;;;3.35;2.65;;;14.50;99.90;;;;;;5040028;28;20056;-49
2023/05/07 11:45:01;;;;;;;3.10;2.67;;;14.60;99.90;;;;;;5039688;28;20056;-51
2023/05/07 11:47:30;;;;;;;3.58;2.53;;;14.60;99.90;;;;;;5039631;28;20028;-53
2023/05/07 11:49:56;;;;;;;3.15;2.42;;;14.70;99.90;;;;;;5040024;28;20511;-50
2023/05/07 11:52:23;;;;;;;3.40;2.60;;;14.80;99.90;;;;;;5039248;28;20041;-51
2023/05/07 11:54:54;;;;;;;3.33;2.75;;;14.80;99.90;;;;;;5040472;28;20070;-50
2023/05/07 11:57:20;;;;;;;2.72;2.40;;;14.90;99.90;;;;;;5039595;28;20122;-49
2023/05/07 11:59:49;;;;;;;2.60;2.40;;;14.80;99.90;;;;;;5039971;28;20392;-50
2023/05/07 12:02:15;;;;;;;2.67;2.47;;;14.90;99.90;;;;;;5039027;28;20040;-52
2023/05/07 12:04:41;;;;;;;2.30;2.10;;;14.90;99.90;;;;;;5039155;28;21178;-49
2023/05/07 12:07:13;;;;;;;2.08;1.90;;;14.90;99.90;;;;;;5038532;28;20028;-50
2023/05/07 12:09:39;;;;;;;2.42;2.22;;;15.00;99.90;;;;;;5021261;28;20029;-50
2023/05/07 12:12:05;;;;;;;2.28;2.08;;;15.00;99.90;;;;;;5039335;28;20404;-50
2023/05/07 12:14:32;;;;;;;2.38;2.17;;;15.10;99.90;;;;;;5038743;28;20033;-49
2023/05/07 12:16:59;;;;;;;2.55;2.25;;;15.10;99.90;;;;;;5037711;28;20029;-51
2023/05/07 12:19:24;;;;;;;2.13;1.95;;;15.10;99.90;;;;;;5039076;28;20387;-50
2023/05/07 12:21:50;;;;;;;2.33;2.13;;;15.10;99.90;;;;;;5037454;28;20034;-49
2023/05/07 12:24:16;;;;;;;3.08;1.83;;;15.20;99.90;;;;;;5038516;28;20025;-49
2023/05/07 12:26:43;;;;;;;2.90;1.63;;;15.20;99.90;;;;;;5037276;28;20048;-51
2023/05/07 12:29:08;;;;;;;1.80;1.70;;;15.30;99.90;;;;;;5038244;28;20033;-50
2023/05/07 12:31:34;;;;;;;1.95;1.83;;;15.40;99.90;;;;;;5038047;28;20032;-49
2023/05/07 12:33:59;;;;;;;2.40;2.08;;;15.40;99.90;;;;;;5038563;28;20113;-49
2023/05/07 12:36:25;;;;;;;2.15;1.95;;;15.30;99.90;;;;;;5037866;28;20037;-50
2023/05/07 12:38:51;;;;;;;2.00;1.80;;;15.40;99.90;;;;;;5039717;28;20033;-49
2023/05/07 12:41:16;;;;;;;2.15;1.60;;;15.40;99.90;;;;;;5035653;28;20068;-49
2023/05/07 12:43:45;;;;;;;1.73;1.63;;;15.50;99.90;;;;;;5036263;28;20519;-48
2023/05/07 12:46:13;;;;;;;2.40;2.20;;;15.50;99.90;;;;;;5035793;28;20041;-48
2023/05/07 12:48:45;;;;;;;1.70;1.55;;;15.60;99.90;;;;;;5036429;28;20029;-49